Time;durP1;ratioP1;P1;durP2;ratioP2;P2;SDS_P1;SDS_P2;PMS_P1;PMS_P2;Temp;Humidity;BMP_temperature;BMP_pressure;BME280_temperature;BME280_humidity;BME280_pressure;Samples;Min_cycle;Max_cycle;Signal;HPM_P1;HPM_P2
2022/05/09 00:02:11;;;;;;;1013.75;942.47;;;12.90;99.90;;;;;;5048687;28;20200;-76
2022/05/09 00:04:37;;;;;;;1001.15;931.22;;;12.90;99.90;;;;;;5033508;28;20540;-77
2022/05/09 00:07:04;;;;;;;1005.47;934.85;;;12.90;99.90;;;;;;5017531;28;20602;-77
2022/05/09 00:09:31;;;;;;;993.53;924.05;;;12.90;99.90;;;;;;5038196;28;20280;-76
2022/05/09 00:11:57;;;;;;;1001.15;931.50;;;12.80;99.90;;;;;;5053748;28;20182;-78
2022/05/09 00:14:23;;;;;;;989.00;920.80;;;12.90;99.90;;;;;;5034886;28;20186;-77
2022/05/09 00:16:51;;;;;;;984.75;916.72;;;12.90;99.90;;;;;;5034926;28;20641;-77
2022/05/09 00:19:20;;;;;;;973.78;907.03;;;12.90;99.90;;;;;;5049967;28;20204;-77
2022/05/09 00:21:47;;;;;;;983.40;915.33;;;12.80;99.90;;;;;;5053333;28;20181;-76
2022/05/09 00:24:14;;;;;;;988.42;919.97;;;12.70;99.90;;;;;;5067430;28;20222;-77
2022/05/09 00:26:41;;;;;;;999.78;930.80;;;12.70;99.90;;;;;;5034257;28;20205;-76
2022/05/09 00:29:09;;;;;;;997.10;927.33;;;12.60;99.90;;;;;;5046477;28;20203;-76
2022/05/09 00:31:35;;;;;;;995.55;927.13;;;12.60;99.90;;;;;;5034354;28;20273;-76
2022/05/09 00:34:01;;;;;;;968.50;902.30;;;12.50;99.90;;;;;;5032664;28;20198;-77
2022/05/09 00:36:26;;;;;;;977.72;910.60;;;12.50;99.90;;;;;;5034289;28;20197;-77
2022/05/09 00:38:52;;;;;;;975.97;908.58;;;12.50;99.90;;;;;;5033872;28;20186;-76
2022/05/09 00:41:40;;;;;;;971.20;904.47;;;12.50;99.90;;;;;;5033730;28;20520;-76
2022/05/09 00:44:11;;;;;;;958.03;892.42;;;12.50;99.90;;;;;;5037853;28;20583;-77
2022/05/09 00:46:38;;;;;;;1000.28;930.40;;;12.50;99.90;;;;;;5034258;28;20178;-77
2022/05/09 00:49:13;;;;;;;1010.42;939.38;;;12.50;99.90;;;;;;5033897;28;20260;-77
2022/05/09 00:51:45;;;;;;;1011.45;940.17;;;12.40;99.90;;;;;;5033498;28;20738;-77
2022/05/09 00:54:11;;;;;;;1009.40;937.55;;;12.40;99.90;;;;;;5033895;28;20187;-77
2022/05/09 00:56:49;;;;;;;1026.68;953.58;;;12.40;99.90;;;;;;5047557;28;20194;-77
2022/05/09 00:59:17;;;;;;;1025.30;952.22;;;12.30;99.90;;;;;;5039671;28;20690;-77
2022/05/09 01:01:45;;;;;;;1026.05;953.33;;;12.30;99.90;;;;;;5031782;28;20562;-76
2022/05/09 01:04:15;;;;;;;1011.88;940.45;;;12.20;99.90;;;;;;5065729;28;20229;-77
2022/05/09 01:06:41;;;;;;;1006.10;935.72;;;12.20;99.90;;;;;;5032096;28;20273;-77
2022/05/09 01:09:10;;;;;;;1012.50;941.33;;;12.20;99.90;;;;;;5047001;28;20214;-76
2022/05/09 01:11:37;;;;;;;1026.32;953.08;;;12.20;99.90;;;;;;5033154;28;20214;-77
2022/05/09 01:14:15;;;;;;;1036.47;962.63;;;12.20;99.90;;;;;;5032567;28;20197;-77
2022/05/09 01:16:41;;;;;;;1010.47;939.15;;;12.10;99.90;;;;;;5033574;28;20734;-77
2022/05/09 01:19:32;;;;;;;1010.75;940.00;;;12.10;99.90;;;;;;5033564;28;20195;-76
2022/05/09 01:22:00;;;;;;;968.13;902.13;;;12.00;99.90;;;;;;5033229;28;20237;-77
2022/05/09 01:24:27;;;;;;;985.85;917.67;;;12.00;99.90;;;;;;5032111;28;20194;-77
2022/05/09 01:26:54;;;;;;;995.97;926.17;;;12.00;99.90;;;;;;5032177;28;20201;-77
2022/05/09 01:29:27;;;;;;;1010.17;939.20;;;12.00;99.90;;;;;;5018212;28;20205;-77
2022/05/09 01:31:53;;;;;;;1000.40;930.35;;;12.10;99.90;;;;;;5048450;28;20265;-76
2022/05/09 01:34:19;;;;;;;1019.22;947.22;;;12.00;99.90;;;;;;5033307;28;20244;-77
2022/05/09 01:36:52;;;;;;;1013.88;942.28;;;12.00;99.90;;;;;;5031962;28;20194;-78
2022/05/09 01:39:17;;;;;;;988.03;918.70;;;12.00;99.90;;;;;;5033746;28;20273;-77
2022/05/09 01:41:46;;;;;;;994.95;924.88;;;12.00;99.90;;;;;;5047182;28;20278;-77
2022/05/09 01:44:14;;;;;;;977.90;910.20;;;11.90;99.90;;;;;;5041853;28;20192;-77
2022/05/09 01:49:29;;;;;;;954.55;889.25;;;11.90;99.90;;;;;;5032593;28;20229;-77
2022/05/09 01:51:56;;;;;;;994.70;924.67;;;11.90;99.90;;;;;;5050456;28;20193;-76
2022/05/09 01:54:22;;;;;;;1000.08;929.90;;;11.80;99.90;;;;;;5033589;28;20191;-77
2022/05/09 01:56:47;;;;;;;991.60;922.13;;;11.80;99.90;;;;;;5039450;28;20274;-77
2022/05/09 01:59:14;;;;;;;994.35;924.00;;;11.70;99.90;;;;;;5048358;28;20195;-77
2022/05/09 02:01:45;;;;;;;1011.28;939.38;;;11.60;99.90;;;;;;5032904;28;20203;-77
2022/05/09 02:04:12;;;;;;;1044.83;968.13;;;11.60;99.90;;;;;;5032891;28;20252;-77
2022/05/09 02:06:38;;;;;;;1060.53;982.05;;;11.60;99.90;;;;;;5036264;28;20194;-75
2022/05/09 02:09:04;;;;;;;1076.37;993.80;;;11.60;99.90;;;;;;5033912;28;20214;-77
2022/05/09 02:11:30;;;;;;;1087.60;998.47;;;11.60;99.90;;;;;;5030245;28;20293;-77
2022/05/09 02:13:56;;;;;;;1080.47;995.33;;;11.50;99.90;;;;;;5032620;28;20183;-77
2022/05/09 02:16:21;;;;;;;1101.03;999.90;;;11.50;99.90;;;;;;5032473;28;20191;-77
2022/05/09 02:18:47;;;;;;;1097.77;999.90;;;11.50;99.90;;;;;;5041217;28;20256;-77
2022/05/09 02:21:13;;;;;;;1096.23;999.90;;;11.40;99.90;;;;;;5050311;28;20268;-77
2022/05/09 02:23:39;;;;;;;1112.40;999.90;;;11.40;99.90;;;;;;5033859;28;20235;-77
2022/05/09 02:26:04;;;;;;;1114.90;999.90;;;11.30;99.90;;;;;;5031404;28;20210;-77
2022/05/09 02:28:34;;;;;;;1118.60;999.90;;;11.30;99.90;;;;;;5018737;28;20649;-77
2022/05/09 02:31:00;;;;;;;1106.30;999.90;;;11.30;99.90;;;;;;5043640;28;20802;-76
2022/05/09 02:33:26;;;;;;;1116.27;999.90;;;11.30;99.90;;;;;;5042303;28;20277;-77
2022/05/09 02:35:51;;;;;;;1120.57;999.90;;;11.30;99.90;;;;;;5036210;28;20197;-77
2022/05/09 02:38:18;;;;;;;1130.10;999.90;;;11.30;99.90;;;;;;5076039;28;20186;-76
2022/05/09 02:40:46;;;;;;;1149.90;999.90;;;11.30;99.90;;;;;;5053816;28;20240;-77
2022/05/09 02:43:12;;;;;;;1168.00;999.90;;;11.30;99.90;;;;;;5034352;28;20187;-77
2022/05/09 02:45:39;;;;;;;1185.57;999.90;;;11.30;99.90;;;;;;5038852;28;20194;-77
2022/05/09 02:48:05;;;;;;;1199.53;999.90;;;11.20;99.90;;;;;;5045267;28;20210;-77
2022/05/09 02:50:31;;;;;;;1199.33;999.90;;;11.20;99.90;;;;;;5036114;28;20210;-79
2022/05/09 02:52:56;;;;;;;1222.10;999.90;;;11.20;99.90;;;;;;5034510;28;20191;-78
2022/05/09 02:55:22;;;;;;;1241.13;999.90;;;11.10;99.90;;;;;;5067965;28;20552;-78
2022/05/09 02:57:49;;;;;;;1246.20;999.90;;;11.10;99.90;;;;;;5034417;28;20190;-78
2022/05/09 03:00:23;;;;;;;1255.67;999.90;;;11.10;99.90;;;;;;5035007;28;20205;-78
2022/05/09 03:05:36;;;;;;;1253.57;999.90;;;11.00;99.90;;;;;;5035082;28;20217;-78
2022/05/09 03:08:02;;;;;;;1261.43;999.90;;;10.90;99.90;;;;;;5034514;28;20221;-78
2022/05/09 03:10:31;;;;;;;1265.77;999.90;;;10.80;99.90;;;;;;5047063;28;20639;-77
2022/05/09 03:13:01;;;;;;;1265.87;999.90;;;10.70;99.90;;;;;;5037771;28;20183;-77
2022/05/09 03:15:29;;;;;;;1261.77;999.90;;;10.60;99.90;;;;;;5034267;28;20245;-78
2022/05/09 03:17:55;;;;;;;1268.17;999.90;;;10.50;99.90;;;;;;5046925;28;20186;-78
2022/05/09 03:20:21;;;;;;;1274.97;999.90;;;10.50;99.90;;;;;;5036858;28;20190;-78
2022/05/09 03:22:48;;;;;;;1272.37;999.90;;;10.50;99.90;;;;;;5046453;28;20288;-77
2022/05/09 03:25:15;;;;;;;1270.17;999.90;;;10.50;99.90;;;;;;5035756;28;20190;-78
2022/05/09 03:27:40;;;;;;;1258.63;999.90;;;10.50;99.90;;;;;;5034914;28;20201;-78
2022/05/09 03:30:08;;;;;;;1245.00;999.90;;;10.60;99.90;;;;;;5034978;28;20190;-78
2022/05/09 03:32:38;;;;;;;1237.47;999.90;;;10.60;99.90;;;;;;5018139;28;20210;-78
2022/05/09 03:35:05;;;;;;;1209.77;999.90;;;10.60;99.90;;;;;;5033853;28;20191;-78
2022/05/09 03:37:31;;;;;;;1163.87;999.90;;;10.60;99.90;;;;;;5033925;28;20221;-78
2022/05/09 03:40:01;;;;;;;1121.57;999.90;;;10.50;99.90;;;;;;5042386;28;20218;-78
2022/05/09 03:42:26;;;;;;;1101.83;999.90;;;10.50;99.90;;;;;;5033872;28;20218;-78
2022/05/09 03:44:52;;;;;;;1025.63;953.80;;;10.50;99.90;;;;;;5033775;28;20190;-78
2022/05/09 03:47:18;;;;;;;907.77;847.67;;;10.40;99.90;;;;;;5034170;28;20532;-78
2022/05/09 03:49:43;;;;;;;665.50;627.67;;;10.40;99.90;;;;;;5033758;28;20666;-78
2022/05/09 03:52:09;;;;;;;633.20;597.13;;;10.50;99.90;;;;;;5050799;28;20561;-78
2022/05/09 03:54:35;;;;;;;618.43;583.23;;;10.40;99.90;;;;;;5040685;28;20194;-77
2022/05/09 03:57:01;;;;;;;507.73;479.47;;;10.50;99.90;;;;;;5035394;28;20725;-77
2022/05/09 03:59:26;;;;;;;444.23;419.77;;;10.50;99.90;;;;;;5046956;28;20190;-77
2022/05/09 04:01:52;;;;;;;430.97;406.60;;;10.50;99.90;;;;;;5033921;28;20206;-78
2022/05/09 04:04:18;;;;;;;423.07;399.60;;;10.50;99.90;;;;;;5033485;28;20190;-78
2022/05/09 04:06:44;;;;;;;387.33;366.13;;;10.50;99.90;;;;;;5033333;28;20193;-78
2022/05/09 04:09:10;;;;;;;418.13;395.67;;;10.50;99.90;;;;;;5033243;28;20206;-78
2022/05/09 04:11:35;;;;;;;400.67;378.37;;;10.40;99.90;;;;;;5033414;28;20195;-77
2022/05/09 04:14:04;;;;;;;364.17;344.20;;;10.40;99.90;;;;;;5019366;28;20194;-77
2022/05/09 04:19:14;;;;;;;410.60;388.60;;;10.50;99.90;;;;;;5048233;28;20637;-77
2022/05/09 04:21:40;;;;;;;363.73;344.17;;;10.60;99.90;;;;;;5049668;28;20213;-77
2022/05/09 04:24:05;;;;;;;348.87;329.20;;;10.50;99.90;;;;;;5034096;28;20187;-78
2022/05/09 04:26:31;;;;;;;340.77;322.03;;;10.40;99.90;;;;;;5048980;28;20245;-78
2022/05/09 04:28:58;;;;;;;317.63;300.47;;;10.40;99.90;;;;;;5036277;28;20231;-78
2022/05/09 04:31:24;;;;;;;357.30;337.77;;;10.50;99.90;;;;;;5049849;28;20277;-77
2022/05/09 04:33:54;;;;;;;339.03;320.10;;;10.50;99.90;;;;;;5032391;28;20270;-78
2022/05/09 04:36:20;;;;;;;387.50;366.13;;;10.50;99.90;;;;;;5032817;28;20170;-78
2022/05/09 04:38:49;;;;;;;377.63;357.50;;;10.50;99.90;;;;;;5049269;28;20194;-78
2022/05/09 04:41:15;;;;;;;358.50;339.13;;;10.50;99.90;;;;;;5068141;28;20193;-77
2022/05/09 04:43:41;;;;;;;350.17;331.13;;;10.50;99.90;;;;;;5043912;28;20187;-77
2022/05/09 04:46:06;;;;;;;360.33;340.10;;;10.50;99.90;;;;;;5031097;28;20209;-77
2022/05/09 04:48:33;;;;;;;358.43;338.70;;;10.60;99.90;;;;;;5054655;28;20210;-75
2022/05/09 04:50:59;;;;;;;367.83;347.80;;;10.60;99.90;;;;;;5032364;28;20205;-73
2022/05/09 04:53:25;;;;;;;334.47;315.77;;;10.60;99.90;;;;;;5018519;28;20187;-75
2022/05/09 04:55:56;;;;;;;394.77;373.40;;;10.70;99.90;;;;;;5033180;28;20191;-75
2022/05/09 04:58:22;;;;;;;433.77;410.03;;;10.70;99.90;;;;;;5033746;28;20604;-71
2022/05/09 05:00:48;;;;;;;424.67;401.93;;;10.80;99.90;;;;;;5071228;28;20308;-73
2022/05/09 05:03:14;;;;;;;450.13;424.73;;;10.80;99.90;;;;;;5038337;28;20197;-70
2022/05/09 05:05:41;;;;;;;380.40;359.47;;;10.70;99.90;;;;;;5027060;28;20265;-71
2022/05/09 05:08:07;;;;;;;404.20;381.87;;;10.40;99.90;;;;;;5033029;28;20222;-73
2022/05/09 05:10:33;;;;;;;462.40;436.80;;;10.40;99.90;;;;;;5050809;28;20217;-74
2022/05/09 05:13:02;;;;;;;425.33;401.77;;;10.50;99.90;;;;;;5038490;28;20194;-72
2022/05/09 05:15:32;;;;;;;416.87;393.87;;;10.50;99.90;;;;;;5032092;28;20182;-73
2022/05/09 05:17:57;;;;;;;408.93;386.60;;;10.50;99.90;;;;;;5048534;28;20186;-73
2022/05/09 05:20:24;;;;;;;427.90;404.53;;;10.60;99.90;;;;;;5037580;28;20265;-72
2022/05/09 05:22:51;;;;;;;411.60;388.90;;;10.60;99.90;;;;;;5016209;28;20186;-73
2022/05/09 05:25:21;;;;;;;448.53;424.47;;;10.70;99.90;;;;;;5044625;28;20221;-73
2022/05/09 05:27:47;;;;;;;507.03;479.10;;;10.70;99.90;;;;;;5041197;28;20182;-73
2022/05/09 05:30:14;;;;;;;493.50;466.93;;;10.90;99.90;;;;;;5048595;28;20199;-73
2022/05/09 05:32:41;;;;;;;556.77;525.87;;;11.10;99.90;;;;;;5031828;28;20179;-73
2022/05/09 05:35:11;;;;;;;657.73;621.27;;;11.30;99.90;;;;;;5031599;28;20185;-73
2022/05/09 05:37:37;;;;;;;707.67;666.73;;;11.40;99.90;;;;;;5033009;28;20197;-72
2022/05/09 05:40:02;;;;;;;725.53;683.57;;;11.50;99.90;;;;;;5043018;28;20191;-73
2022/05/09 05:42:29;;;;;;;756.50;712.23;;;11.60;99.90;;;;;;5015491;28;20202;-69
2022/05/09 05:44:55;;;;;;;731.57;689.37;;;11.70;99.90;;;;;;5045163;28;20206;-70
2022/05/09 05:47:21;;;;;;;765.40;720.20;;;11.40;99.90;;;;;;5041818;28;20195;-70
2022/05/09 05:49:47;;;;;;;815.30;766.33;;;11.20;99.90;;;;;;5033263;28;20340;-69
2022/05/09 05:52:14;;;;;;;826.63;776.57;;;11.30;99.90;;;;;;5032900;28;20325;-70
2022/05/09 05:54:43;;;;;;;836.97;785.57;;;11.60;99.90;;;;;;5033605;28;20535;-70
2022/05/09 05:57:25;;;;;;;864.57;810.70;;;11.60;99.90;;;;;;5032815;28;20186;-70
2022/05/09 05:59:58;;;;;;;877.87;823.13;;;11.90;99.90;;;;;;5067147;28;20221;-70
2022/05/09 06:02:25;;;;;;;903.78;846.33;;;12.00;99.90;;;;;;5036734;28;20270;-70
2022/05/09 06:04:51;;;;;;;902.55;845.08;;;12.00;99.90;;;;;;5036721;28;20187;-70
2022/05/09 06:07:18;;;;;;;921.00;861.55;;;12.10;99.90;;;;;;5044908;28;20195;-70
2022/05/09 06:09:45;;;;;;;951.15;888.92;;;12.10;99.90;;;;;;5035525;28;20679;-70
2022/05/09 06:12:13;;;;;;;1014.83;945.15;;;12.20;99.90;;;;;;5049605;28;20205;-70
2022/05/09 06:14:39;;;;;;;1046.03;973.47;;;12.40;99.90;;;;;;5041757;28;20187;-69
2022/05/09 06:17:06;;;;;;;1076.25;996.28;;;12.60;99.90;;;;;;5035450;28;20214;-70
2022/05/09 06:19:34;;;;;;;1090.97;999.90;;;12.90;99.90;;;;;;5018997;28;20187;-70
2022/05/09 06:22:01;;;;;;;1115.75;999.90;;;12.90;99.90;;;;;;5050368;28;20652;-70
2022/05/09 06:24:27;;;;;;;1125.75;999.90;;;13.00;99.90;;;;;;5036635;28;20191;-70
2022/05/09 06:26:53;;;;;;;1149.47;999.90;;;13.00;99.90;;;;;;5068209;28;20265;-70
2022/05/09 06:29:23;;;;;;;1175.93;999.90;;;13.00;99.90;;;;;;5067983;28;20293;-70
2022/05/09 06:31:49;;;;;;;1189.40;999.90;;;13.10;99.90;;;;;;5036561;28;20187;-70
2022/05/09 06:34:15;;;;;;;1199.00;999.90;;;13.10;99.90;;;;;;5035109;28;20532;-70
2022/05/09 06:36:44;;;;;;;1207.88;999.90;;;13.10;99.90;;;;;;5040001;28;20198;-69
2022/05/09 06:39:11;;;;;;;1217.57;999.90;;;13.10;99.90;;;;;;5050490;28;20199;-70
2022/05/09 06:41:37;;;;;;;1223.60;999.90;;;13.20;99.90;;;;;;5067724;28;20189;-69
2022/05/09 06:44:03;;;;;;;1216.18;999.90;;;13.40;99.90;;;;;;5036005;28;20576;-69
2022/05/09 06:46:29;;;;;;;1210.32;999.90;;;13.50;99.90;;;;;;5059150;28;20179;-69
2022/05/09 06:48:54;;;;;;;1213.50;999.90;;;13.80;99.90;;;;;;5036171;28;20233;-70
2022/05/09 06:51:20;;;;;;;1216.63;999.90;;;13.90;99.90;;;;;;5036671;28;20190;-69
2022/05/09 06:53:46;;;;;;;1211.47;999.90;;;13.90;99.90;;;;;;5030862;28;20187;-70
2022/05/09 06:56:12;;;;;;;1209.38;999.90;;;13.80;99.90;;;;;;5037418;28;20186;-70
2022/05/09 06:58:39;;;;;;;1214.50;999.90;;;14.00;99.90;;;;;;5049766;28;20331;-69
2022/05/09 07:01:16;;;;;;;1216.78;999.90;;;14.10;99.90;;;;;;5067398;28;20281;-70
2022/05/09 07:03:43;;;;;;;1223.32;999.90;;;14.20;99.90;;;;;;5046134;28;20189;-69
2022/05/09 07:06:09;;;;;;;1233.22;999.90;;;14.20;99.90;;;;;;5053678;28;20268;-70
2022/05/09 07:08:35;;;;;;;1231.32;999.90;;;14.30;99.90;;;;;;5036690;28;20749;-69
2022/05/09 07:11:02;;;;;;;1230.40;999.90;;;14.40;99.90;;;;;;5033557;28;20243;-70
2022/05/09 07:13:29;;;;;;;1225.00;999.90;;;14.40;99.90;;;;;;5034092;28;20648;-69
2022/05/09 07:15:57;;;;;;;1230.45;999.90;;;14.60;99.90;;;;;;5067458;28;20217;-69
2022/05/09 07:18:27;;;;;;;1228.00;999.90;;;14.60;99.90;;;;;;5035441;28;20191;-69
2022/05/09 07:20:52;;;;;;;1226.80;999.90;;;14.70;99.90;;;;;;5034219;28;20552;-70
2022/05/09 07:23:18;;;;;;;1221.32;999.90;;;14.80;99.90;;;;;;5060785;28;20178;-70
2022/05/09 07:25:44;;;;;;;1219.43;999.90;;;15.10;99.90;;;;;;5044026;28;20191;-69
2022/05/09 07:28:12;;;;;;;1225.68;999.90;;;15.30;99.90;;;;;;5025847;28;20668;-70
2022/05/09 07:30:38;;;;;;;1239.35;999.90;;;16.20;99.90;;;;;;5034249;28;20241;-69
2022/05/09 07:33:04;;;;;;;1235.40;999.90;;;18.10;99.90;;;;;;5033868;28;20262;-69
2022/05/09 07:35:32;;;;;;;1181.32;999.90;;;20.00;99.90;;;;;;5044182;28;20259;-69
2022/05/09 07:37:58;;;;;;;1085.85;997.95;;;21.60;99.90;;;;;;5040099;28;20182;-70
2022/05/09 07:40:23;;;;;;;1069.75;988.65;;;23.10;99.90;;;;;;5035529;28;20249;-69
2022/05/09 07:42:56;;;;;;;855.20;797.72;;;24.10;99.90;;;;;;5033866;28;20198;-69
2022/05/09 07:45:22;;;;;;;733.30;684.47;;;24.90;99.90;;;;;;5051749;28;20205;-71
2022/05/09 07:47:48;;;;;;;552.55;517.38;;;25.40;99.90;;;;;;5020266;28;20193;-69
2022/05/09 07:50:15;;;;;;;433.00;403.70;;;25.30;99.90;;;;;;5034055;28;20631;-69
2022/05/09 07:52:42;;;;;;;370.38;345.33;;;25.40;99.90;;;;;;5034772;28;20210;-71
2022/05/09 07:55:11;;;;;;;347.05;320.63;;;26.70;99.90;;;;;;5035111;28;20190;-71
2022/05/09 07:57:37;;;;;;;363.77;337.30;;;26.80;99.90;;;;;;5035155;28;20178;-71
2022/05/09 08:00:05;;;;;;;401.20;372.65;;;26.90;99.90;;;;;;5033856;28;20201;-69
2022/05/09 08:02:32;;;;;;;451.58;418.90;;;28.40;99.90;;;;;;5033437;28;20259;-69
2022/05/09 08:04:58;;;;;;;504.90;470.08;;;28.90;99.90;;;;;;5034401;28;20646;-69
2022/05/09 08:07:24;;;;;;;612.00;570.20;;;29.00;99.90;;;;;;5033511;28;20193;-71
2022/05/09 08:09:53;;;;;;;716.80;667.60;;;29.90;99.90;;;;;;5033272;28;20265;-71
2022/05/09 08:12:22;;;;;;;829.53;770.72;;;29.70;99.90;;;;;;5034615;28;20693;-71
2022/05/09 08:14:47;;;;;;;979.30;906.30;;;30.20;99.90;;;;;;5044276;28;20189;-71
2022/05/09 08:17:13;;;;;;;1040.50;960.92;;;30.60;99.90;;;;;;5033287;28;20240;-71
2022/05/09 08:19:39;;;;;;;1089.78;998.10;;;28.90;99.90;;;;;;5023987;28;20551;-71
2022/05/09 08:22:07;;;;;;;1036.78;957.03;;;29.50;99.90;;;;;;5033889;28;20600;-72
2022/05/09 08:24:34;;;;;;;1036.63;957.35;;;29.10;99.90;;;;;;5034222;28;20651;-69
2022/05/09 08:27:00;;;;;;;1057.88;976.67;;;29.10;99.90;;;;;;5034026;28;20182;-69
2022/05/09 08:29:25;;;;;;;1094.18;998.75;;;28.80;99.90;;;;;;5034444;28;20311;-69
2022/05/09 08:31:54;;;;;;;1133.07;999.90;;;28.70;99.90;;;;;;5033828;28;20189;-69
2022/05/09 08:34:22;;;;;;;1123.40;999.90;;;29.30;99.90;;;;;;5034111;28;20236;-68
2022/05/09 08:36:53;;;;;;;1125.45;999.90;;;28.70;99.90;;;;;;5032641;28;20525;-68
2022/05/09 08:39:20;;;;;;;1112.20;999.90;;;28.60;99.90;;;;;;5049962;28;20190;-68
2022/05/09 08:41:49;;;;;;;1127.88;999.90;;;29.10;99.90;;;;;;5066045;28;20650;-68
2022/05/09 08:44:29;;;;;;;1091.30;997.30;;;28.70;99.90;;;;;;5033925;28;20260;-68
2022/05/09 08:47:13;;;;;;;1063.57;982.83;;;28.20;99.90;;;;;;5037809;28;20173;-69
2022/05/09 08:50:05;;;;;;;1053.03;973.65;;;27.70;99.90;;;;;;5052171;28;20629;-71
2022/05/09 08:52:49;;;;;;;1045.93;966.58;;;27.80;99.90;;;;;;5021332;28;20206;-71
2022/05/09 08:55:26;;;;;;;1038.47;960.40;;;28.70;99.90;;;;;;5033462;28;20223;-71
2022/05/09 08:58:21;;;;;;;1098.90;999.90;;;28.30;99.90;;;;;;5033892;28;20618;-69
2022/05/09 09:00:50;;;;;;;1119.63;999.90;;;28.30;99.90;;;;;;5041881;28;20193;-69
2022/05/09 09:03:25;;;;;;;1072.15;990.05;;;27.80;99.90;;;;;;5033517;28;20185;-71
2022/05/09 09:05:53;;;;;;;1063.18;983.50;;;27.60;99.90;;;;;;5042308;28;20215;-68
2022/05/09 09:08:18;;;;;;;1067.80;987.47;;;27.20;99.90;;;;;;5038997;28;20205;-71
2022/05/09 09:10:52;;;;;;;1064.50;984.00;;;26.90;99.90;;;;;;5049834;28;20185;-71
2022/05/09 09:13:52;;;;;;;1049.47;971.88;;;26.30;99.90;;;;;;5035123;28;20244;-69
2022/05/09 09:16:23;;;;;;;1099.13;999.90;;;25.60;99.90;;;;;;5033568;28;20520;-68
2022/05/09 09:19:16;;;;;;;1064.90;984.90;;;24.90;99.90;;;;;;5032352;28;20273;-68
2022/05/09 09:22:16;;;;;;;1065.93;986.55;;;23.80;99.90;;;;;;5035700;28;20178;-69
2022/05/09 09:25:03;;;;;;;1043.53;966.65;;;23.20;99.90;;;;;;5041605;28;20198;-69
2022/05/09 09:27:36;;;;;;;1025.45;950.67;;;22.80;99.90;;;;;;5033307;28;20167;-69
2022/05/09 09:30:12;;;;;;;951.08;884.92;;;22.80;99.90;;;;;;5065108;28;20218;-68
2022/05/09 09:32:43;;;;;;;890.25;830.00;;;22.40;99.90;;;;;;5033292;28;20182;-68
2022/05/09 09:35:35;;;;;;;820.55;767.67;;;21.80;99.90;;;;;;5035375;28;20188;-68
2022/05/09 09:38:25;;;;;;;739.00;692.63;;;21.40;99.90;;;;;;5043899;28;20539;-68
2022/05/09 09:40:51;;;;;;;699.35;656.17;;;21.30;99.90;;;;;;5032894;28;20636;-68
2022/05/09 09:43:20;;;;;;;594.25;558.45;;;21.40;99.90;;;;;;5039363;28;20196;-68
2022/05/09 09:46:00;;;;;;;476.73;447.63;;;21.10;99.90;;;;;;5033095;28;20201;-68
2022/05/09 09:48:26;;;;;;;463.50;435.13;;;20.90;99.90;;;;;;5032698;28;20206;-69
2022/05/09 09:50:59;;;;;;;361.85;338.48;;;21.00;99.90;;;;;;5032366;28;20715;-68
2022/05/09 09:53:32;;;;;;;468.35;441.23;;;21.30;99.90;;;;;;5049313;28;20186;-68
2022/05/09 09:56:08;;;;;;;346.52;325.77;;;21.70;99.90;;;;;;5031945;28;20178;-68
2022/05/09 09:58:35;;;;;;;362.83;340.10;;;21.90;99.90;;;;;;5031427;28;20349;-69
2022/05/09 10:01:10;;;;;;;305.95;286.30;;;22.10;99.90;;;;;;5046758;28;20200;-68
2022/05/09 10:03:42;;;;;;;340.30;318.95;;;22.00;99.90;;;;;;5035088;28;20189;-68
2022/05/09 10:06:20;;;;;;;290.55;272.55;;;22.10;99.90;;;;;;5040247;28;20264;-68
2022/05/09 10:08:55;;;;;;;287.40;269.08;;;22.20;99.90;;;;;;5034829;28;20202;-68
2022/05/09 10:11:24;;;;;;;276.83;259.23;;;22.20;99.90;;;;;;5033017;28;20273;-68
2022/05/09 10:13:58;;;;;;;267.55;251.15;;;22.30;99.90;;;;;;5033203;28;20198;-69
2022/05/09 10:16:28;;;;;;;251.85;235.88;;;22.40;99.90;;;;;;5031681;28;20181;-69
2022/05/09 10:18:55;;;;;;;243.95;227.52;;;22.30;99.90;;;;;;5033102;28;20232;-68
2022/05/09 10:24:49;;;;;;;241.48;225.68;;;22.30;99.90;;;;;;5032471;28;20572;-68
2022/05/09 10:27:30;;;;;;;235.00;220.20;;;22.20;99.90;;;;;;5031532;28;20191;-69
2022/05/09 10:29:59;;;;;;;238.07;222.38;;;22.20;99.90;;;;;;5032788;28;20222;-69
2022/05/09 10:32:28;;;;;;;238.15;223.00;;;21.90;99.90;;;;;;5031757;28;20195;-69
2022/05/09 10:35:10;;;;;;;239.85;225.05;;;21.60;99.90;;;;;;5050031;28;20657;-68
2022/05/09 10:37:47;;;;;;;230.43;215.65;;;21.80;99.90;;;;;;5032683;28;20175;-69
2022/05/09 10:40:47;;;;;;;245.10;229.75;;;22.30;99.90;;;;;;5032772;28;20227;-69
2022/05/09 10:43:30;;;;;;;246.20;230.75;;;22.60;99.90;;;;;;5032308;28;20199;-68
2022/05/09 10:45:56;;;;;;;260.92;244.88;;;22.60;99.90;;;;;;5035080;28;20194;-68
2022/05/09 10:48:21;;;;;;;280.42;264.13;;;22.70;99.90;;;;;;5034809;28;20221;-69
2022/05/09 10:51:02;;;;;;;294.08;277.48;;;22.50;99.90;;;;;;5079130;28;20201;-69
2022/05/09 10:53:54;;;;;;;289.80;272.58;;;22.30;99.90;;;;;;5034792;28;20183;-69
2022/05/09 10:56:41;;;;;;;287.08;270.40;;;22.50;99.90;;;;;;5036598;28;20529;-69
2022/05/09 10:59:14;;;;;;;277.70;261.95;;;22.70;99.90;;;;;;5036641;28;20213;-69
2022/05/09 11:01:50;;;;;;;345.02;325.75;;;22.90;99.90;;;;;;5047974;28;20194;-68
2022/05/09 11:04:16;;;;;;;320.17;302.02;;;22.50;99.90;;;;;;5034498;28;20223;-69
2022/05/09 11:07:03;;;;;;;340.77;322.30;;;22.60;99.90;;;;;;5034886;28;20689;-69
2022/05/09 11:09:32;;;;;;;312.00;294.63;;;22.60;99.90;;;;;;5035643;28;20345;-68
2022/05/09 11:12:05;;;;;;;351.35;332.25;;;22.50;99.90;;;;;;5035712;28;20197;-68
2022/05/09 11:14:53;;;;;;;433.27;410.10;;;22.70;99.90;;;;;;5050538;28;20643;-69
2022/05/09 11:17:48;;;;;;;424.02;401.25;;;22.80;99.90;;;;;;5035976;28;20680;-68
2022/05/09 11:20:19;;;;;;;418.08;395.33;;;23.00;99.90;;;;;;5035441;28;20232;-69
2022/05/09 11:22:57;;;;;;;485.08;458.38;;;23.00;99.90;;;;;;5035578;28;20190;-69
2022/05/09 11:25:30;;;;;;;505.33;477.70;;;23.00;99.90;;;;;;5035429;28;20269;-69
2022/05/09 11:28:02;;;;;;;507.20;479.13;;;22.90;99.90;;;;;;5035359;28;20209;-69
2022/05/09 11:30:43;;;;;;;455.33;430.92;;;22.90;99.90;;;;;;5047897;28;20198;-69
2022/05/09 11:33:30;;;;;;;531.83;503.00;;;22.90;99.90;;;;;;5037590;28;20190;-69
2022/05/09 11:36:05;;;;;;;542.50;512.80;;;22.80;99.90;;;;;;5045770;28;20183;-69
2022/05/09 11:38:47;;;;;;;515.67;487.45;;;23.10;99.90;;;;;;5035833;28;20182;-69
2022/05/09 11:41:12;;;;;;;553.85;523.25;;;23.40;99.90;;;;;;5045519;28;20549;-70
2022/05/09 11:43:53;;;;;;;554.80;524.28;;;23.60;99.90;;;;;;5034108;28;20186;-70
2022/05/09 11:46:30;;;;;;;527.30;498.35;;;23.50;99.90;;;;;;5052637;28;20515;-70
2022/05/09 11:49:34;;;;;;;568.72;537.17;;;23.30;99.90;;;;;;5067216;28;20210;-71
2022/05/09 11:52:07;;;;;;;509.85;481.60;;;23.30;99.90;;;;;;5035430;28;20250;-69
2022/05/09 11:54:45;;;;;;;542.25;512.08;;;23.30;99.90;;;;;;5041636;28;20208;-70
2022/05/09 11:57:33;;;;;;;557.45;526.35;;;23.30;99.90;;;;;;5066969;28;20729;-70
2022/05/09 12:00:04;;;;;;;594.42;561.50;;;23.60;99.90;;;;;;5034748;28;20187;-70
2022/05/09 12:02:44;;;;;;;605.50;571.70;;;23.80;99.90;;;;;;5034734;28;20250;-70
2022/05/09 12:05:31;;;;;;;609.88;575.38;;;23.80;99.90;;;;;;5033440;28;20650;-70
2022/05/09 12:08:02;;;;;;;622.83;587.85;;;23.70;99.90;;;;;;5034522;28;20268;-70
2022/05/09 12:10:30;;;;;;;667.45;628.75;;;23.70;99.90;;;;;;5034579;28;20191;-71
2022/05/09 12:13:04;;;;;;;653.42;615.58;;;23.90;99.90;;;;;;5048071;28;20264;-70
2022/05/09 12:15:36;;;;;;;665.50;627.08;;;24.00;99.90;;;;;;5048792;28;20191;-70
2022/05/09 12:18:07;;;;;;;666.92;629.13;;;24.20;99.90;;;;;;5035368;28;20190;-69
2022/05/09 12:20:37;;;;;;;696.78;655.92;;;24.00;99.90;;;;;;5066682;28;20647;-69
2022/05/09 12:23:12;;;;;;;708.90;666.70;;;24.00;99.90;;;;;;5034541;28;20661;-69
2022/05/09 12:25:41;;;;;;;711.97;669.88;;;23.80;99.90;;;;;;5048497;28;20218;-69
2022/05/09 12:28:19;;;;;;;715.10;672.70;;;23.90;99.90;;;;;;5034222;28;20277;-69
2022/05/09 12:31:00;;;;;;;730.83;687.00;;;24.00;99.90;;;;;;5034425;28;20354;-70